Time;durP1;ratioP1;P1;durP2;ratioP2;P2;SDS_P1;SDS_P2;PMS_P1;PMS_P2;Temp;Humidity;BMP_temperature;BMP_pressure;BME280_temperature;BME280_humidity;BME280_pressure;Samples;Min_cycle;Max_cycle;Signal;HPM_P1;HPM_P2
2023/09/30 00:02:08;;;;;;;22.55;9.48;;;;;;;;;;4962390;28;20047;-62
2023/09/30 00:04:35;;;;;;;25.08;9.02;;;;;;;;;;4963000;28;20435;-60
2023/09/30 00:07:02;;;;;;;23.70;8.88;;;;;;;;;;4962897;28;20130;-60
2023/09/30 00:09:28;;;;;;;27.58;10.77;;;;;;;;;;4969028;28;20101;-59
2023/09/30 00:11:55;;;;;;;23.48;9.43;;;;;;;;;;4965564;28;20072;-62
2023/09/30 00:14:24;;;;;;;22.98;9.82;;;;;;;;;;4967896;28;20050;-60
2023/09/30 00:16:52;;;;;;;19.42;7.93;;;;;;;;;;4954547;28;20050;-61
2023/09/30 00:19:18;;;;;;;21.58;9.35;;;;;;;;;;4961447;28;20137;-59
2023/09/30 00:21:45;;;;;;;24.33;9.63;;;;;;;;;;4972025;28;20092;-61
2023/09/30 00:24:11;;;;;;;24.38;9.00;;;;;;;;;;4970038;28;20122;-61
2023/09/30 00:26:38;;;;;;;24.02;8.80;;;;;;;;;;4974200;28;20126;-61
2023/09/30 00:29:05;;;;;;;24.13;7.97;;;;;;;;;;4973320;28;20043;-61
2023/09/30 00:31:33;;;;;;;27.48;9.10;;;;;;;;;;4976677;28;20051;-61
2023/09/30 00:34:00;;;;;;;21.25;8.35;;;;;;;;;;4975909;28;20530;-63
2023/09/30 00:36:27;;;;;;;24.27;8.40;;;;;;;;;;4967474;28;20082;-61
2023/09/30 00:38:53;;;;;;;24.98;9.10;;;;;;;;;;4963986;28;20082;-62
2023/09/30 00:41:20;;;;;;;24.27;9.35;;;;;;;;;;4959893;28;20499;-62
2023/09/30 00:43:47;;;;;;;23.17;9.93;;;;;;;;;;4954225;28;20134;-61
2023/09/30 00:46:26;;;;;;;23.50;9.63;;;;;;;;;;4954174;28;20083;-60
2023/09/30 00:48:56;;;;;;;27.40;9.33;;;;;;;;;;4954467;28;20051;-61
2023/09/30 00:51:23;;;;;;;28.13;9.60;;;;;;;;;;4967778;28;20343;-61
2023/09/30 00:53:51;;;;;;;25.67;10.15;;;;;;;;;;4971903;28;20085;-61
2023/09/30 00:56:19;;;;;;;24.25;8.20;;;;;;;;;;4971029;28;20107;-62
2023/09/30 00:58:47;;;;;;;25.17;9.98;;;;;;;;;;4974895;28;20058;-61
2023/09/30 01:01:13;;;;;;;22.52;9.98;;;;;;;;;;4972149;28;20054;-62
2023/09/30 01:03:40;;;;;;;25.58;9.95;;;;;;;;;;4976913;28;20105;-60
2023/09/30 01:06:09;;;;;;;22.10;9.38;;;;;;;;;;4957473;28;20050;-62
2023/09/30 01:08:36;;;;;;;23.73;9.57;;;;;;;;;;4965429;28;20130;-62
2023/09/30 01:11:03;;;;;;;22.83;10.75;;;;;;;;;;4964574;28;20510;-62
2023/09/30 01:13:33;;;;;;;21.98;8.35;;;;;;;;;;4958022;28;20700;-62
2023/09/30 01:16:04;;;;;;;22.83;9.85;;;;;;;;;;4953767;28;20055;-62
2023/09/30 01:18:31;;;;;;;23.63;9.32;;;;;;;;;;4961530;28;20059;-63
2023/09/30 01:20:59;;;;;;;23.70;9.18;;;;;;;;;;4963989;28;20055;-62
2023/09/30 01:23:29;;;;;;;26.10;9.65;;;;;;;;;;4972744;28;20210;-62
2023/09/30 01:25:55;;;;;;;26.73;9.80;;;;;;;;;;4962108;28;20570;-62
2023/09/30 01:28:22;;;;;;;26.73;9.90;;;;;;;;;;4953806;28;20134;-62
2023/09/30 01:30:49;;;;;;;24.38;9.60;;;;;;;;;;4953413;28;20166;-61
2023/09/30 01:33:18;;;;;;;24.60;9.57;;;;;;;;;;4953171;28;20048;-62
2023/09/30 01:35:45;;;;;;;27.67;9.77;;;;;;;;;;4962190;28;20550;-60
2023/09/30 01:38:12;;;;;;;24.67;10.70;;;;;;;;;;4960262;28;20051;-60
2023/09/30 01:40:40;;;;;;;23.08;9.70;;;;;;;;;;4953035;28;20495;-61
2023/09/30 01:43:07;;;;;;;23.70;10.52;;;;;;;;;;4964694;28;20062;-60
2023/09/30 01:45:35;;;;;;;24.05;9.55;;;;;;;;;;4965461;28;20059;-61
2023/09/30 01:48:02;;;;;;;23.75;9.70;;;;;;;;;;4953280;28;20510;-61
2023/09/30 01:50:28;;;;;;;28.67;10.88;;;;;;;;;;4953086;28;20549;-61
2023/09/30 01:52:55;;;;;;;26.50;11.27;;;;;;;;;;4952981;28;20130;-61
2023/09/30 01:55:21;;;;;;;27.00;10.23;;;;;;;;;;4952980;28;20134;-62
2023/09/30 01:57:50;;;;;;;25.73;10.68;;;;;;;;;;4953013;28;20055;-62
2023/09/30 02:00:17;;;;;;;26.77;10.10;;;;;;;;;;4953047;28;20134;-61
2023/09/30 02:02:44;;;;;;;25.50;10.30;;;;;;;;;;4961353;28;20061;-61
2023/09/30 02:05:10;;;;;;;23.73;9.88;;;;;;;;;;4960171;28;20043;-61
2023/09/30 02:07:38;;;;;;;25.27;10.32;;;;;;;;;;4952956;28;20142;-61
2023/09/30 02:10:05;;;;;;;24.48;10.48;;;;;;;;;;4952734;28;20043;-60
2023/09/30 02:12:32;;;;;;;27.35;10.50;;;;;;;;;;4952727;28;20047;-61
2023/09/30 02:15:00;;;;;;;25.42;9.57;;;;;;;;;;4963499;28;20098;-61
2023/09/30 02:17:27;;;;;;;25.73;11.07;;;;;;;;;;4958036;28;20130;-60
2023/09/30 02:19:54;;;;;;;29.50;9.95;;;;;;;;;;4952651;28;20414;-61
2023/09/30 02:22:21;;;;;;;25.40;10.98;;;;;;;;;;4960667;28;20047;-61
2023/09/30 02:24:49;;;;;;;25.55;10.95;;;;;;;;;;4960689;28;20053;-60
2023/09/30 02:27:15;;;;;;;27.77;11.18;;;;;;;;;;4953101;28;20047;-61
2023/09/30 02:29:42;;;;;;;25.10;9.48;;;;;;;;;;4952670;28;20134;-61
2023/09/30 02:32:10;;;;;;;21.52;10.55;;;;;;;;;;4952750;28;20154;-61
2023/09/30 02:34:37;;;;;;;24.95;9.25;;;;;;;;;;4958584;28;20529;-59
2023/09/30 02:37:04;;;;;;;25.10;9.98;;;;;;;;;;4972039;28;20586;-61
2023/09/30 02:39:31;;;;;;;25.27;10.40;;;;;;;;;;4978659;28;20134;-60
2023/09/30 02:41:57;;;;;;;26.92;10.75;;;;;;;;;;4966959;28;20055;-60
2023/09/30 02:44:24;;;;;;;24.50;9.43;;;;;;;;;;4956413;28;20082;-61
2023/09/30 02:46:51;;;;;;;27.13;10.10;;;;;;;;;;4957658;28;20082;-61
2023/09/30 02:49:19;;;;;;;27.05;11.10;;;;;;;;;;4970331;28;20090;-61
2023/09/30 02:51:45;;;;;;;22.95;10.43;;;;;;;;;;4956948;28;20102;-61
2023/09/30 02:54:15;;;;;;;26.40;9.93;;;;;;;;;;4971181;28;20338;-61
2023/09/30 02:56:41;;;;;;;25.25;10.40;;;;;;;;;;4956197;28;20047;-61
2023/09/30 02:59:08;;;;;;;26.25;10.57;;;;;;;;;;4956497;28;20130;-61
2023/09/30 03:01:35;;;;;;;28.55;10.70;;;;;;;;;;4955989;28;20089;-61
2023/09/30 03:04:02;;;;;;;27.35;10.45;;;;;;;;;;4958524;28;20158;-62
2023/09/30 03:06:30;;;;;;;30.45;10.60;;;;;;;;;;4972240;28;20130;-61
2023/09/30 03:08:56;;;;;;;25.58;10.18;;;;;;;;;;4966504;28;20480;-62
2023/09/30 03:11:23;;;;;;;27.52;10.90;;;;;;;;;;4973179;28;20078;-62
2023/09/30 03:13:50;;;;;;;25.05;9.55;;;;;;;;;;4963805;28;20047;-61
2023/09/30 03:16:17;;;;;;;29.92;11.77;;;;;;;;;;4955772;28;20471;-61
2023/09/30 03:18:44;;;;;;;25.15;11.93;;;;;;;;;;4955442;28;20134;-61
2023/09/30 03:21:15;;;;;;;29.45;10.27;;;;;;;;;;4955791;28;20051;-60
2023/09/30 03:23:43;;;;;;;25.80;10.43;;;;;;;;;;4964156;28;20566;-61
2023/09/30 03:26:10;;;;;;;27.30;11.18;;;;;;;;;;4967407;28;20495;-61
2023/09/30 03:28:37;;;;;;;24.17;9.57;;;;;;;;;;4959248;28;20139;-61
2023/09/30 03:31:05;;;;;;;26.15;10.23;;;;;;;;;;4955300;28;20474;-61
2023/09/30 03:33:32;;;;;;;22.92;9.70;;;;;;;;;;4962388;28;20115;-61
2023/09/30 03:35:59;;;;;;;24.58;9.52;;;;;;;;;;4964182;28;20460;-60
2023/09/30 03:38:26;;;;;;;25.63;10.85;;;;;;;;;;4955237;28;20135;-62
2023/09/30 03:40:55;;;;;;;21.10;9.38;;;;;;;;;;4957060;28;20146;-60
2023/09/30 03:43:23;;;;;;;23.85;10.52;;;;;;;;;;4969115;28;20083;-61
2023/09/30 03:45:50;;;;;;;21.08;9.57;;;;;;;;;;4955105;28;20583;-61
2023/09/30 03:48:18;;;;;;;23.27;9.27;;;;;;;;;;4954727;28;20562;-61
2023/09/30 03:50:45;;;;;;;22.50;8.05;;;;;;;;;;4954844;28;20083;-61
2023/09/30 03:53:12;;;;;;;22.75;9.40;;;;;;;;;;4954907;28;20134;-61
2023/09/30 03:55:38;;;;;;;25.88;9.57;;;;;;;;;;4962870;28;20467;-61
2023/09/30 03:58:06;;;;;;;20.10;8.77;;;;;;;;;;4966217;28;20082;-61
2023/09/30 04:00:33;;;;;;;23.40;9.02;;;;;;;;;;4958977;28;20118;-61
2023/09/30 04:03:00;;;;;;;24.15;9.48;;;;;;;;;;4954663;28;20079;-61
2023/09/30 04:05:29;;;;;;;23.00;10.20;;;;;;;;;;4955107;28;20411;-63
2023/09/30 04:07:56;;;;;;;28.02;10.55;;;;;;;;;;4956875;28;20094;-61
2023/09/30 04:10:23;;;;;;;23.95;9.10;;;;;;;;;;4973646;28;20130;-61
2023/09/30 04:12:50;;;;;;;25.35;8.57;;;;;;;;;;4964290;28;20051;-60
2023/09/30 04:15:18;;;;;;;24.85;9.40;;;;;;;;;;4967503;28;20055;-59
2023/09/30 04:17:45;;;;;;;19.55;8.63;;;;;;;;;;4972810;28;20134;-61
2023/09/30 04:20:16;;;;;;;22.33;8.10;;;;;;;;;;4964342;28;20086;-61
2023/09/30 04:22:48;;;;;;;21.67;9.55;;;;;;;;;;4967155;28;20054;-64
2023/09/30 04:25:16;;;;;;;22.23;9.38;;;;;;;;;;4958996;28;20554;-63
2023/09/30 04:27:44;;;;;;;23.27;9.65;;;;;;;;;;4965964;28;20059;-60
2023/09/30 04:30:11;;;;;;;24.17;8.68;;;;;;;;;;4961423;28;20055;-61
2023/09/30 04:32:39;;;;;;;23.65;9.13;;;;;;;;;;4954040;28;20098;-62
2023/09/30 04:35:07;;;;;;;23.92;9.07;;;;;;;;;;4962148;28;20054;-60
2023/09/30 04:37:34;;;;;;;27.17;9.57;;;;;;;;;;4962266;28;20094;-59
2023/09/30 04:40:01;;;;;;;23.30;9.70;;;;;;;;;;4962189;28;20606;-62
2023/09/30 04:42:27;;;;;;;25.77;9.52;;;;;;;;;;4962370;28;20514;-60
2023/09/30 04:44:55;;;;;;;24.58;10.32;;;;;;;;;;4964026;28;20475;-60
2023/09/30 04:47:23;;;;;;;23.98;8.82;;;;;;;;;;4967861;28;20090;-61
2023/09/30 04:49:52;;;;;;;22.70;8.95;;;;;;;;;;4954086;28;20475;-60
2023/09/30 04:52:18;;;;;;;23.50;9.68;;;;;;;;;;4953783;28;20054;-59
2023/09/30 04:54:46;;;;;;;24.17;10.25;;;;;;;;;;4970739;28;20050;-63
2023/09/30 04:57:12;;;;;;;25.73;8.48;;;;;;;;;;4961063;28;20043;-63
2023/09/30 04:59:39;;;;;;;23.92;9.13;;;;;;;;;;4961068;28;20149;-62
2023/09/30 05:02:06;;;;;;;21.33;8.77;;;;;;;;;;4953604;28;20083;-62
2023/09/30 05:04:32;;;;;;;24.20;9.63;;;;;;;;;;4954093;28;20051;-63
2023/09/30 05:07:00;;;;;;;21.00;8.27;;;;;;;;;;4953670;28;20485;-63
2023/09/30 05:09:28;;;;;;;22.42;9.15;;;;;;;;;;4953822;28;20054;-62
2023/09/30 05:11:55;;;;;;;22.70;8.80;;;;;;;;;;4955471;28;20478;-63
2023/09/30 05:14:22;;;;;;;22.00;8.32;;;;;;;;;;4967545;28;20507;-63
2023/09/30 05:16:48;;;;;;;23.60;8.13;;;;;;;;;;4953551;28;20411;-63
2023/09/30 05:19:15;;;;;;;22.85;8.52;;;;;;;;;;4958248;28;20483;-63
2023/09/30 05:21:42;;;;;;;21.52;8.32;;;;;;;;;;4970184;28;20134;-62
2023/09/30 05:24:10;;;;;;;19.27;8.45;;;;;;;;;;4970158;28;20471;-61
2023/09/30 05:26:37;;;;;;;26.60;8.98;;;;;;;;;;4959999;28;20122;-63
2023/09/30 05:29:04;;;;;;;20.85;8.43;;;;;;;;;;4961249;28;20589;-62
2023/09/30 05:31:30;;;;;;;21.58;9.15;;;;;;;;;;4967937;28;20507;-61
2023/09/30 05:33:57;;;;;;;22.67;8.98;;;;;;;;;;4958678;28;20070;-61
2023/09/30 05:36:24;;;;;;;20.15;8.68;;;;;;;;;;4967330;28;20456;-62
2023/09/30 05:38:50;;;;;;;24.42;8.90;;;;;;;;;;4953387;28;20055;-61
2023/09/30 05:41:20;;;;;;;18.40;7.75;;;;;;;;;;4953683;28;20053;-62
2023/09/30 05:43:47;;;;;;;21.52;8.43;;;;;;;;;;4962377;28;20051;-61
2023/09/30 05:46:14;;;;;;;22.23;8.25;;;;;;;;;;4960258;28;20047;-62
2023/09/30 05:48:41;;;;;;;20.33;8.32;;;;;;;;;;4953315;28;20511;-62
2023/09/30 05:51:08;;;;;;;22.45;9.35;;;;;;;;;;4961263;28;20130;-62
2023/09/30 05:53:36;;;;;;;18.90;7.68;;;;;;;;;;4953350;28;20086;-62
2023/09/30 05:56:03;;;;;;;21.08;8.35;;;;;;;;;;4961316;28;20053;-62
2023/09/30 05:58:31;;;;;;;19.52;8.32;;;;;;;;;;4953153;28;20053;-62
2023/09/30 06:01:00;;;;;;;18.50;7.53;;;;;;;;;;4961104;28;20043;-62
2023/09/30 06:03:29;;;;;;;21.15;7.45;;;;;;;;;;4952962;28;20071;-62
2023/09/30 06:05:56;;;;;;;21.23;7.93;;;;;;;;;;4953213;28;20576;-62
2023/09/30 06:08:23;;;;;;;19.80;8.65;;;;;;;;;;4958861;28;20054;-62
2023/09/30 06:10:49;;;;;;;20.80;8.38;;;;;;;;;;4955136;28;20448;-62
2023/09/30 06:13:16;;;;;;;19.10;7.57;;;;;;;;;;4956789;28;20070;-62
2023/09/30 06:15:46;;;;;;;20.48;8.48;;;;;;;;;;4956806;28;20047;-62
2023/09/30 06:18:14;;;;;;;17.83;7.30;;;;;;;;;;4972004;28;20559;-62
2023/09/30 06:20:41;;;;;;;18.50;6.63;;;;;;;;;;4962854;28;20055;-61
2023/09/30 06:23:09;;;;;;;20.13;7.80;;;;;;;;;;4965888;28;20047;-62
2023/09/30 06:25:36;;;;;;;19.77;6.80;;;;;;;;;;4961397;28;20094;-61
2023/09/30 06:28:03;;;;;;;18.48;6.70;;;;;;;;;;4957048;28;20450;-62
2023/09/30 06:30:30;;;;;;;16.58;6.82;;;;;;;;;;4957156;28;20055;-62
2023/09/30 06:32:59;;;;;;;16.42;7.03;;;;;;;;;;4974307;28;20109;-62
2023/09/30 06:35:26;;;;;;;19.55;7.57;;;;;;;;;;4962456;28;20419;-63
2023/09/30 06:37:53;;;;;;;25.48;8.27;;;;;;;;;;4956904;28;20491;-63
2023/09/30 06:40:20;;;;;;;20.20;8.23;;;;;;;;;;4956315;28;20467;-61
2023/09/30 06:42:47;;;;;;;22.70;8.20;;;;;;;;;;4956374;28;20459;-62
2023/09/30 06:45:13;;;;;;;18.17;8.20;;;;;;;;;;4972265;28;20051;-62
2023/09/30 06:47:41;;;;;;;21.85;7.38;;;;;;;;;;4973263;28;20043;-62
2023/09/30 06:50:12;;;;;;;16.95;6.82;;;;;;;;;;4973604;28;20043;-61
2023/09/30 06:52:40;;;;;;;23.13;7.85;;;;;;;;;;4974971;28;20050;-61
2023/09/30 06:55:08;;;;;;;16.13;6.38;;;;;;;;;;4967991;28;20122;-61
2023/09/30 06:57:36;;;;;;;16.52;6.65;;;;;;;;;;4974119;28;20142;-60
2023/09/30 07:00:08;;;;;;;16.55;7.43;;;;;;;;;;4966760;28;20134;-61
2023/09/30 07:02:35;;;;;;;18.90;6.57;;;;;;;;;;4970530;28;20117;-63
2023/09/30 07:05:04;;;;;;;15.13;5.90;;;;;;;;;;4973423;28;20582;-60
2023/09/30 07:07:32;;;;;;;15.57;6.80;;;;;;;;;;4975066;28;20054;-60
2023/09/30 07:09:59;;;;;;;13.85;5.43;;;;;;;;;;4973150;28;20050;-60
2023/09/30 07:12:25;;;;;;;14.82;5.07;;;;;;;;;;4977767;28;20090;-61
2023/09/30 07:14:52;;;;;;;13.55;5.50;;;;;;;;;;4984432;28;20499;-60
2023/09/30 07:17:18;;;;;;;13.77;5.13;;;;;;;;;;4985078;28;20046;-61
2023/09/30 07:19:45;;;;;;;14.07;5.80;;;;;;;;;;4972604;28;20149;-61
2023/09/30 07:22:13;;;;;;;11.93;4.72;;;;;;;;;;4980672;28;20498;-61
2023/09/30 07:24:41;;;;;;;11.70;4.70;;;;;;;;;;4971220;28;20057;-61
2023/09/30 07:27:08;;;;;;;13.35;4.40;;;;;;;;;;4991595;28;20050;-61
2023/09/30 07:29:34;;;;;;;10.18;4.97;;;;;;;;;;4964014;28;20051;-61
2023/09/30 07:32:01;;;;;;;16.00;5.05;;;;;;;;;;4955739;28;20208;-61
2023/09/30 07:34:28;;;;;;;11.15;4.30;;;;;;;;;;4955878;28;20113;-59
2023/09/30 07:36:55;;;;;;;12.90;4.72;;;;;;;;;;4955224;28;20058;-60
2023/09/30 07:39:22;;;;;;;12.52;4.63;;;;;;;;;;4955765;28;20043;-60
2023/09/30 07:41:50;;;;;;;11.27;4.80;;;;;;;;;;4955170;28;20138;-61
2023/09/30 07:44:16;;;;;;;10.35;4.35;;;;;;;;;;4959993;28;20055;-61
2023/09/30 07:46:43;;;;;;;11.98;5.35;;;;;;;;;;4963620;28;20511;-59
2023/09/30 07:49:11;;;;;;;13.95;4.90;;;;;;;;;;4955311;28;20410;-59
2023/09/30 07:51:39;;;;;;;12.38;5.60;;;;;;;;;;4954932;28;20487;-60
2023/09/30 07:54:06;;;;;;;14.98;5.60;;;;;;;;;;4955297;28;20057;-60
2023/09/30 07:56:32;;;;;;;15.18;5.47;;;;;;;;;;4955284;28;20491;-60
2023/09/30 07:59:01;;;;;;;13.20;5.57;;;;;;;;;;4956330;28;20421;-64
2023/09/30 08:01:28;;;;;;;12.45;4.90;;;;;;;;;;4965355;28;20047;-59
2023/09/30 08:03:55;;;;;;;15.38;5.95;;;;;;;;;;4983819;28;20054;-61
2023/09/30 08:06:23;;;;;;;14.07;5.97;;;;;;;;;;4955213;28;20121;-61
2023/09/30 08:08:50;;;;;;;14.70;5.68;;;;;;;;;;4964079;28;20050;-60
2023/09/30 08:11:19;;;;;;;13.18;5.50;;;;;;;;;;4961583;28;20490;-60
2023/09/30 08:13:45;;;;;;;16.10;5.70;;;;;;;;;;4954870;28;20054;-61
2023/09/30 08:16:14;;;;;;;13.73;5.03;;;;;;;;;;4954758;28;20137;-59
2023/09/30 08:18:40;;;;;;;14.90;5.30;;;;;;;;;;4955390;28;20047;-59
2023/09/30 08:21:11;;;;;;;15.27;5.10;;;;;;;;;;4956387;28;20048;-60
2023/09/30 08:23:38;;;;;;;12.85;5.22;;;;;;;;;;4955448;28;20049;-59
2023/09/30 08:26:05;;;;;;;14.73;5.38;;;;;;;;;;4954665;28;20418;-60
2023/09/30 08:28:32;;;;;;;13.95;5.35;;;;;;;;;;4954434;28;20053;-61
2023/09/30 08:31:04;;;;;;;11.70;5.18;;;;;;;;;;4954095;28;20047;-62
2023/09/30 08:33:32;;;;;;;13.95;5.70;;;;;;;;;;4954454;28;20126;-58
2023/09/30 08:36:06;;;;;;;13.75;5.70;;;;;;;;;;4954200;28;20515;-58
2023/09/30 08:38:34;;;;;;;13.75;6.10;;;;;;;;;;4954255;28;20043;-62
2023/09/30 08:41:02;;;;;;;16.17;5.75;;;;;;;;;;4954045;28;20058;-61
2023/09/30 08:43:30;;;;;;;14.57;5.60;;;;;;;;;;4954163;28;20056;-59
2023/09/30 08:45:57;;;;;;;12.82;4.93;;;;;;;;;;4954023;28;20059;-61
2023/09/30 08:48:26;;;;;;;13.80;5.22;;;;;;;;;;4954093;28;20065;-64
2023/09/30 08:50:55;;;;;;;11.48;4.80;;;;;;;;;;4954040;28;20075;-62
2023/09/30 08:53:23;;;;;;;13.68;5.30;;;;;;;;;;4954304;28;20055;-61
2023/09/30 08:55:54;;;;;;;11.93;4.55;;;;;;;;;;4953797;28;20459;-62
2023/09/30 08:58:22;;;;;;;11.75;6.03;;;;;;;;;;4953784;28;20110;-62
2023/09/30 09:00:49;;;;;;;14.82;5.65;;;;;;;;;;4953479;28;20079;-61
2023/09/30 09:03:15;;;;;;;12.43;4.82;;;;;;;;;;4954200;28;20494;-62
2023/09/30 09:05:42;;;;;;;12.35;5.25;;;;;;;;;;4954027;28;20143;-61
2023/09/30 09:08:10;;;;;;;13.07;5.05;;;;;;;;;;4965386;28;20498;-62
2023/09/30 09:10:46;;;;;;;13.90;5.15;;;;;;;;;;4972637;28;20050;-62
2023/09/30 09:13:12;;;;;;;11.82;4.85;;;;;;;;;;4954067;28;20460;-61
2023/09/30 09:15:39;;;;;;;11.77;4.80;;;;;;;;;;4953681;28;20102;-61
2023/09/30 09:18:06;;;;;;;12.55;5.13;;;;;;;;;;4953885;28;20134;-61
2023/09/30 09:20:34;;;;;;;13.70;5.07;;;;;;;;;;4960256;28;20138;-63
2023/09/30 09:23:00;;;;;;;12.85;5.03;;;;;;;;;;4965127;28;20678;-62
2023/09/30 09:25:28;;;;;;;10.98;4.20;;;;;;;;;;4966932;28;20570;-61
2023/09/30 09:27:56;;;;;;;11.30;4.97;;;;;;;;;;4953675;28;20134;-61
2023/09/30 09:30:24;;;;;;;11.05;4.38;;;;;;;;;;4953862;28;20047;-62
2023/09/30 09:33:04;;;;;;;10.60;4.10;;;;;;;;;;4953754;28;20051;-62
2023/09/30 09:35:33;;;;;;;12.70;4.32;;;;;;;;;;4953589;28;20352;-61
2023/09/30 09:38:00;;;;;;;12.52;4.30;;;;;;;;;;4953486;28;20519;-62
2023/09/30 09:40:30;;;;;;;9.77;4.43;;;;;;;;;;4967513;28;20050;-62
2023/09/30 09:42:58;;;;;;;14.35;4.80;;;;;;;;;;4954917;28;20491;-62
2023/09/30 09:45:26;;;;;;;11.50;4.13;;;;;;;;;;4953648;28;20051;-62
2023/09/30 09:47:54;;;;;;;11.40;4.53;;;;;;;;;;4952987;28;20071;-61
2023/09/30 09:50:22;;;;;;;10.98;4.68;;;;;;;;;;4953090;28;20086;-62
2023/09/30 09:52:51;;;;;;;10.65;4.50;;;;;;;;;;4953220;28;20079;-62
2023/09/30 09:55:18;;;;;;;12.38;5.00;;;;;;;;;;4953352;28;20057;-61
2023/09/30 09:57:47;;;;;;;10.00;3.95;;;;;;;;;;4953382;28;20048;-62
2023/09/30 10:00:18;;;;;;;11.15;4.38;;;;;;;;;;4953100;28;20142;-61
2023/09/30 10:02:45;;;;;;;11.40;4.70;;;;;;;;;;4966553;28;20098;-63
2023/09/30 10:05:13;;;;;;;10.23;4.07;;;;;;;;;;4959750;28;20066;-63
2023/09/30 10:07:45;;;;;;;9.57;3.47;;;;;;;;;;4963379;28;20146;-62
2023/09/30 10:10:15;;;;;;;8.95;3.65;;;;;;;;;;4957501;28;20047;-63
2023/09/30 10:12:42;;;;;;;9.10;3.22;;;;;;;;;;4964033;28;20491;-61
2023/09/30 10:15:41;;;;;;;8.88;3.33;;;;;;;;;;4966831;28;20182;-62
2023/09/30 10:18:09;;;;;;;8.40;3.75;;;;;;;;;;4962616;28;20082;-63
2023/09/30 10:20:37;;;;;;;6.88;3.78;;;;;;;;;;4968341;28;20042;-62
2023/09/30 10:23:19;;;;;;;11.00;4.95;;;;;;;;;;4965490;28;20043;-64
2023/09/30 10:25:47;;;;;;;8.50;3.40;;;;;;;;;;4964949;28;20048;-62
2023/09/30 10:28:34;;;;;;;8.13;3.30;;;;;;;;;;4965798;28;20097;-61
2023/09/30 10:31:17;;;;;;;8.15;3.35;;;;;;;;;;4969740;28;20129;-61
2023/09/30 10:34:21;;;;;;;7.30;3.35;;;;;;;;;;4962184;28;20526;-65
2023/09/30 10:36:50;;;;;;;7.47;2.75;;;;;;;;;;4970638;28;20124;-62
2023/09/30 10:40:09;;;;;;;6.80;3.00;;;;;;;;;;4978379;28;20087;-63
2023/09/30 10:42:49;;;;;;;8.30;3.13;;;;;;;;;;4904652;29;20059;-62
2023/09/30 10:45:45;;;;;;;8.13;3.15;;;;;;;;;;4957973;28;20050;-62
2023/09/30 10:48:40;;;;;;;7.75;3.03;;;;;;;;;;4952712;28;20064;-62
2023/09/30 10:51:18;;;;;;;7.65;3.13;;;;;;;;;;4965575;28;20051;-64
2023/09/30 10:53:46;;;;;;;11.25;3.05;;;;;;;;;;4970168;28;20122;-66
2023/09/30 10:56:13;;;;;;;8.32;3.17;;;;;;;;;;4971566;28;20127;-64
2023/09/30 10:58:41;;;;;;;8.13;2.92;;;;;;;;;;4982769;28;20125;-64
2023/09/30 11:01:08;;;;;;;8.38;3.17;;;;;;;;;;4972107;28;20047;-65
2023/09/30 11:03:36;;;;;;;10.82;3.38;;;;;;;;;;4977868;28;20144;-63
2023/09/30 11:06:04;;;;;;;11.00;2.95;;;;;;;;;;4973263;28;20491;-63
2023/09/30 11:08:31;;;;;;;6.95;3.22;;;;;;;;;;4977360;28;20051;-66
2023/09/30 11:11:00;;;;;;;8.27;3.30;;;;;;;;;;4980361;28;20109;-64
2023/09/30 11:13:32;;;;;;;11.65;3.95;;;;;;;;;;4973129;28;20063;-66
2023/09/30 11:16:04;;;;;;;11.48;3.90;;;;;;;;;;4968765;28;20074;-65
2023/09/30 11:18:32;;;;;;;10.52;3.80;;;;;;;;;;4973036;28;20121;-62
2023/09/30 11:21:08;;;;;;;9.68;3.78;;;;;;;;;;4977230;28;20049;-62
2023/09/30 11:23:36;;;;;;;8.65;3.63;;;;;;;;;;4974646;28;20051;-63
2023/09/30 11:26:02;;;;;;;11.27;3.95;;;;;;;;;;4965998;28;20423;-64
2023/09/30 11:28:37;;;;;;;11.75;3.95;;;;;;;;;;4973793;28;20042;-64
2023/09/30 11:31:06;;;;;;;14.07;5.18;;;;;;;;;;4977688;28;20043;-62
2023/09/30 11:33:33;;;;;;;12.43;5.07;;;;;;;;;;4978698;28;20117;-63
2023/09/30 11:36:02;;;;;;;16.20;7.47;;;;;;;;;;4978921;28;20486;-63
2023/09/30 11:38:31;;;;;;;21.33;9.45;;;;;;;;;;4973206;28;20073;-63
2023/09/30 11:41:03;;;;;;;13.98;5.20;;;;;;;;;;4986715;28;20490;-62
2023/09/30 11:43:31;;;;;;;12.05;4.75;;;;;;;;;;4978568;28;20101;-63
2023/09/30 11:46:08;;;;;;;11.23;4.32;;;;;;;;;;4986537;28;20098;-63
2023/09/30 11:48:36;;;;;;;15.85;6.50;;;;;;;;;;4972587;28;20054;-63
2023/09/30 11:51:03;;;;;;;13.18;5.00;;;;;;;;;;4979606;28;20058;-63
2023/09/30 11:53:31;;;;;;;11.80;5.55;;;;;;;;;;4976536;28;20125;-63
2023/09/30 11:55:59;;;;;;;13.10;5.53;;;;;;;;;;4985209;28;20081;-62
2023/09/30 11:58:27;;;;;;;11.82;5.13;;;;;;;;;;4973205;28;20054;-62
2023/09/30 12:00:59;;;;;;;15.35;5.70;;;;;;;;;;4969848;28;20047;-62
2023/09/30 12:03:27;;;;;;;14.48;6.43;;;;;;;;;;4970166;28;20522;-63
2023/09/30 12:05:55;;;;;;;13.68;5.60;;;;;;;;;;4964968;28;20043;-63
2023/09/30 12:08:22;;;;;;;16.77;6.05;;;;;;;;;;4964652;28;20058;-63
2023/09/30 12:10:50;;;;;;;15.07;6.63;;;;;;;;;;4963970;28;20043;-62
2023/09/30 12:13:17;;;;;;;13.77;5.75;;;;;;;;;;4976528;28;20043;-63
2023/09/30 12:15:44;;;;;;;15.98;6.28;;;;;;;;;;4983001;28;20050;-63
2023/09/30 12:18:13;;;;;;;16.05;7.40;;;;;;;;;;4974181;28;20122;-63
2023/09/30 12:20:41;;;;;;;15.55;6.30;;;;;;;;;;4981016;28;20102;-62
2023/09/30 12:23:07;;;;;;;18.02;6.93;;;;;;;;;;4954948;28;20559;-63
2023/09/30 12:25:35;;;;;;;14.48;6.10;;;;;;;;;;4954941;28;20070;-63
2023/09/30 12:28:04;;;;;;;17.70;6.63;;;;;;;;;;4963825;28;20042;-62
2023/09/30 12:30:31;;;;;;;21.02;6.82;;;;;;;;;;4978332;28;20443;-63
2023/09/30 12:32:58;;;;;;;17.60;6.90;;;;;;;;;;4975001;28;20073;-63
2023/09/30 12:35:25;;;;;;;13.93;6.18;;;;;;;;;;4985489;28;20135;-63
2023/09/30 12:37:52;;;;;;;17.15;6.55;;;;;;;;;;4982231;28;20538;-63
2023/09/30 12:40:18;;;;;;;13.55;5.68;;;;;;;;;;4983105;28;20134;-62
2023/09/30 12:42:45;;;;;;;15.60;5.47;;;;;;;;;;4973327;28;20046;-63
2023/09/30 12:45:16;;;;;;;17.33;6.07;;;;;;;;;;4965257;28;20047;-63
2023/09/30 12:47:43;;;;;;;13.07;6.20;;;;;;;;;;4979006;28;20049;-63
2023/09/30 12:50:10;;;;;;;12.68;5.55;;;;;;;;;;4977431;28;20051;-63
2023/09/30 12:52:38;;;;;;;13.82;6.28;;;;;;;;;;4985042;28;20049;-63
2023/09/30 12:55:06;;;;;;;14.10;5.38;;;;;;;;;;4968212;28;20134;-62
2023/09/30 12:57:32;;;;;;;16.85;6.55;;;;;;;;;;4977705;28;20082;-63
2023/09/30 12:59:59;;;;;;;15.13;5.55;;;;;;;;;;4981183;28;20105;-63
2023/09/30 13:02:27;;;;;;;12.02;5.78;;;;;;;;;;4976321;28;20129;-63
2023/09/30 13:04:54;;;;;;;14.27;5.05;;;;;;;;;;4978821;28;20042;-63
2023/09/30 13:07:21;;;;;;;12.50;5.40;;;;;;;;;;4977069;28;20137;-63
2023/09/30 13:09:47;;;;;;;15.65;6.03;;;;;;;;;;4962667;28;20129;-63
2023/09/30 13:12:14;;;;;;;17.60;6.47;;;;;;;;;;4978335;28;20130;-62
2023/09/30 13:14:41;;;;;;;13.98;5.88;;;;;;;;;;4976651;28;20055;-63
2023/09/30 13:17:07;;;;;;;15.07;5.97;;;;;;;;;;4953816;28;20236;-63
2023/09/30 13:19:36;;;;;;;15.57;5.60;;;;;;;;;;4961603;28;20130;-63
2023/09/30 13:22:03;;;;;;;16.70;5.82;;;;;;;;;;4960948;28;20049;-63
2023/09/30 13:24:29;;;;;;;14.77;6.70;;;;;;;;;;4960280;28;20097;-62
2023/09/30 13:26:56;;;;;;;15.98;5.47;;;;;;;;;;4964866;28;20142;-62
2023/09/30 13:29:23;;;;;;;14.90;6.50;;;;;;;;;;4959827;28;20158;-62
2023/09/30 13:31:50;;;;;;;15.68;6.68;;;;;;;;;;4962055;28;20055;-62
2023/09/30 13:34:16;;;;;;;16.23;6.20;;;;;;;;;;4960589;28;20130;-63
2023/09/30 13:36:45;;;;;;;14.35;5.82;;;;;;;;;;4962081;28;20146;-63
2023/09/30 13:39:13;;;;;;;15.45;5.88;;;;;;;;;;4957229;28;20105;-63
2023/09/30 13:41:40;;;;;;;15.13;6.20;;;;;;;;;;4964811;28;20399;-63
2023/09/30 13:44:07;;;;;;;15.32;6.97;;;;;;;;;;4956967;28;20134;-62
2023/09/30 13:46:34;;;;;;;16.30;7.80;;;;;;;;;;4965504;28;20054;-63
2023/09/30 13:49:01;;;;;;;12.38;5.38;;;;;;;;;;4968731;28;20130;-63
2023/09/30 13:51:28;;;;;;;15.15;6.20;;;;;;;;;;4967252;28;20510;-63
2023/09/30 13:53:56;;;;;;;13.38;5.75;;;;;;;;;;4965818;28;20133;-63
2023/09/30 13:56:23;;;;;;;12.75;5.72;;;;;;;;;;4970405;28;20133;-63
2023/09/30 13:58:49;;;;;;;13.80;5.70;;;;;;;;;;4959203;28;20114;-62
2023/09/30 14:01:18;;;;;;;14.10;6.20;;;;;;;;;;4966291;28;20049;-62
2023/09/30 14:03:46;;;;;;;14.93;5.68;;;;;;;;;;4967425;28;20066;-62
2023/09/30 14:06:13;;;;;;;14.35;6.60;;;;;;;;;;4961362;28;20047;-62
2023/09/30 14:08:42;;;;;;;15.40;6.80;;;;;;;;;;4967029;28;20096;-62
2023/09/30 14:11:11;;;;;;;13.45;6.00;;;;;;;;;;4965699;28;20477;-64
2023/09/30 14:13:39;;;;;;;13.88;6.30;;;;;;;;;;4974386;28;20116;-62
2023/09/30 14:16:06;;;;;;;15.25;6.15;;;;;;;;;;4971265;28;20050;-62
2023/09/30 14:18:33;;;;;;;14.68;5.63;;;;;;;;;;4977778;28;20083;-62
2023/09/30 14:21:00;;;;;;;14.90;5.88;;;;;;;;;;4975545;28;20397;-62
2023/09/30 14:23:28;;;;;;;13.32;6.15;;;;;;;;;;4968359;28;20047;-63
2023/09/30 14:25:55;;;;;;;15.07;6.75;;;;;;;;;;4957131;28;20055;-63
2023/09/30 14:28:23;;;;;;;16.17;6.07;;;;;;;;;;4971631;28;20416;-62
2023/09/30 14:30:50;;;;;;;15.07;6.75;;;;;;;;;;4973747;28;20132;-62
2023/09/30 14:33:18;;;;;;;16.73;6.60;;;;;;;;;;4974998;28;20043;-62
2023/09/30 14:35:46;;;;;;;14.52;6.15;;;;;;;;;;4982104;28;20038;-63